Terminal Aerodrome Forecast
Issued by NWS

Home | Current Version | Previous Version | Text Only | Print | Product List | Glossary On
Versions: 1 2 3 4 5 6 7 8 9 10 11 12 13 14 15 16
317
FTUS45 KRIW 281236 AAA
TAFRKS
TAF AMD
KRKS 281236Z 2813/2912 34010G18KT 5SM -SN SCT005 OVC018
      TEMPO 2813/2815 1SM -SN BKN005
     FM281600 33020G30KT P6SM VCSH FEW010 SCT020 BKN035
     FM290200 34011KT P6SM SCT040
     FM291000 VRB04KT P6SM VCFG SCT007=

USA.gov is the U.S. government's official web portal to all federal, state and local government web resources and services.